Time;durP1;ratioP1;P1;durP2;ratioP2;P2;SDS_P1;SDS_P2;PMS_P1;PMS_P2;Temp;Humidity;BMP_temperature;BMP_pressure;BME280_temperature;BME280_humidity;BME280_pressure;Samples;Min_cycle;Max_cycle;Signal;HPM_P1;HPM_P2
2023/01/18 00:01:57;;;;;;;8.27;5.97;;;;;;;;;;5010076;28;20478;-53
2023/01/18 00:04:23;;;;;;;5.60;4.60;;;;;;;;;;5007563;28;20511;-53
2023/01/18 00:06:49;;;;;;;7.57;5.43;;;;;;;;;;5005229;28;21108;-53
2023/01/18 00:09:15;;;;;;;5.93;5.33;;;;;;;;;;4985437;28;20453;-54
2023/01/18 00:11:41;;;;;;;8.83;5.77;;;;;;;;;;5008426;28;20795;-53
2023/01/18 00:14:07;;;;;;;6.70;4.57;;;;;;;;;;4979779;28;20450;-52
2023/01/18 00:16:33;;;;;;;13.60;5.70;;;;;;;;;;4998053;28;20515;-52
2023/01/18 00:18:59;;;;;;;9.07;5.53;;;;;;;;;;4971199;28;20443;-52
2023/01/18 00:21:25;;;;;;;8.90;6.20;;;;;;;;;;5001979;28;20434;-54
2023/01/18 00:23:52;;;;;;;12.30;5.70;;;;;;;;;;4945719;28;20454;-52
2023/01/18 00:26:18;;;;;;;9.80;7.00;;;;;;;;;;4990173;28;20470;-51
2023/01/18 00:28:44;;;;;;;13.90;7.30;;;;;;;;;;4997333;28;20439;-52
2023/01/18 00:31:10;;;;;;;12.50;8.30;;;;;;;;;;4983558;28;20449;-53
2023/01/18 00:33:37;;;;;;;16.20;8.63;;;;;;;;;;4998036;28;21305;-51
2023/01/18 00:36:03;;;;;;;11.40;8.17;;;;;;;;;;4977842;28;21080;-53
2023/01/18 00:38:29;;;;;;;10.10;7.27;;;;;;;;;;5001128;28;20435;-51
2023/01/18 00:40:55;;;;;;;10.83;6.97;;;;;;;;;;4971581;28;20442;-53
2023/01/18 00:43:39;;;;;;;11.43;9.33;;;;;;;;;;5001074;28;21002;-51
2023/01/18 00:46:08;;;;;;;10.80;7.00;;;;;;;;;;4998051;28;20438;-52
2023/01/18 00:48:34;;;;;;;15.63;8.27;;;;;;;;;;4998480;28;20434;-53
2023/01/18 00:51:00;;;;;;;13.57;9.30;;;;;;;;;;4997689;28;20735;-52
2023/01/18 00:53:26;;;;;;;13.23;8.33;;;;;;;;;;5002419;28;20882;-50
2023/01/18 00:55:52;;;;;;;11.10;8.20;;;;;;;;;;4964708;28;20455;-53
2023/01/18 00:58:18;;;;;;;14.03;8.00;;;;;;;;;;4997867;28;20895;-53
2023/01/18 01:00:44;;;;;;;15.07;7.73;;;;;;;;;;4987655;28;20861;-53
2023/01/18 01:03:13;;;;;;;12.37;7.83;;;;;;;;;;4972554;28;21747;-53
2023/01/18 01:08:23;;;;;;;10.23;7.93;;;;;;;;;;4992717;28;20449;-53
2023/01/18 01:10:50;;;;;;;14.60;8.20;;;;;;;;;;5008547;28;20443;-52
2023/01/18 01:27:23;;;;;;;8.17;6.10;;;;;;;;;;4993615;28;20462;-53
2023/01/18 01:29:51;;;;;;;9.00;6.40;;;;;;;;;;4979935;28;20514;-52
2023/01/18 01:32:17;;;;;;;12.27;7.07;;;;;;;;;;5002925;28;20439;-51
2023/01/18 01:34:43;;;;;;;13.63;8.13;;;;;;;;;;4998460;28;20704;-53
2023/01/18 01:37:09;;;;;;;13.23;7.13;;;;;;;;;;5006100;28;20444;-53
2023/01/18 01:39:35;;;;;;;9.27;6.70;;;;;;;;;;4999824;28;20469;-51
2023/01/18 01:42:01;;;;;;;8.70;6.37;;;;;;;;;;5004926;28;20727;-51
2023/01/18 01:44:29;;;;;;;7.80;6.30;;;;;;;;;;4983131;28;20698;-54
2023/01/18 01:47:00;;;;;;;8.27;7.20;;;;;;;;;;5006091;28;20431;-54
2023/01/18 01:49:38;;;;;;;10.10;7.10;;;;;;;;;;4979356;28;20481;-52
2023/01/18 01:52:05;;;;;;;10.07;6.57;;;;;;;;;;5009934;28;20499;-51
2023/01/18 01:54:32;;;;;;;9.33;6.57;;;;;;;;;;4980139;28;21002;-51
2023/01/18 01:56:59;;;;;;;10.17;6.07;;;;;;;;;;5005320;28;21019;-51
2023/01/18 01:59:25;;;;;;;9.30;6.47;;;;;;;;;;4955785;28;20958;-51
2023/01/18 02:01:51;;;;;;;9.00;5.87;;;;;;;;;;5004368;28;20435;-51
2023/01/18 02:04:17;;;;;;;10.50;7.00;;;;;;;;;;5005893;28;20736;-53
2023/01/18 02:06:43;;;;;;;10.23;7.63;;;;;;;;;;5010367;28;20431;-54
2023/01/18 02:09:10;;;;;;;11.90;7.17;;;;;;;;;;4993467;28;20459;-53
2023/01/18 02:11:36;;;;;;;10.67;6.83;;;;;;;;;;5006817;28;21733;-52
2023/01/18 02:14:03;;;;;;;12.40;8.13;;;;;;;;;;4985056;28;20821;-51
2023/01/18 02:16:29;;;;;;;11.33;6.80;;;;;;;;;;4999692;28;20442;-51
2023/01/18 02:19:04;;;;;;;14.10;8.10;;;;;;;;;;4981555;28;20844;-52
2023/01/18 02:21:33;;;;;;;11.47;7.73;;;;;;;;;;5007662;28;20441;-52
2023/01/18 02:24:22;;;;;;;21.77;10.13;;;;;;;;;;5003479;28;20479;-51
2023/01/18 02:26:48;;;;;;;13.17;8.37;;;;;;;;;;5004301;28;20678;-52
2023/01/18 02:29:35;;;;;;;11.47;8.07;;;;;;;;;;4957113;28;20654;-51
2023/01/18 02:32:14;;;;;;;12.93;8.00;;;;;;;;;;5001312;28;20864;-54
2023/01/18 02:34:41;;;;;;;13.60;8.07;;;;;;;;;;4982972;28;20659;-52
2023/01/18 02:37:10;;;;;;;16.83;9.50;;;;;;;;;;5005869;28;20447;-52
2023/01/18 02:39:45;;;;;;;15.00;8.77;;;;;;;;;;4981978;28;21502;-51
2023/01/18 02:47:44;;;;;;;14.33;9.53;;;;;;;;;;5006946;28;20442;-50
2023/01/18 02:50:10;;;;;;;14.10;8.60;;;;;;;;;;4984594;28;20442;-52
2023/01/18 02:52:36;;;;;;;13.40;8.83;;;;;;;;;;5009422;28;20455;-52
2023/01/18 02:55:02;;;;;;;15.20;9.80;;;;;;;;;;4982137;28;20946;-51
2023/01/18 02:57:28;;;;;;;13.30;7.70;;;;;;;;;;5005638;28;20574;-51
2023/01/18 02:59:54;;;;;;;16.07;10.07;;;;;;;;;;4962924;28;20995;-51
2023/01/18 03:02:20;;;;;;;13.27;7.50;;;;;;;;;;5003117;28;21090;-51
2023/01/18 03:04:53;;;;;;;14.73;8.60;;;;;;;;;;4999954;28;20529;-51
2023/01/18 03:07:22;;;;;;;14.13;8.30;;;;;;;;;;5006050;28;20917;-52
2023/01/18 03:09:48;;;;;;;13.83;8.63;;;;;;;;;;4978676;28;21788;-52
2023/01/18 03:12:17;;;;;;;13.83;10.10;;;;;;;;;;5007241;28;20443;-52
2023/01/18 03:14:57;;;;;;;17.53;9.20;;;;;;;;;;5002523;28;20431;-51
2023/01/18 03:17:27;;;;;;;15.17;9.00;;;;;;;;;;4999837;28;21852;-50
2023/01/18 03:20:06;;;;;;;13.43;8.47;;;;;;;;;;4984358;28;20562;-51
2023/01/18 03:25:25;;;;;;;12.93;9.13;;;;;;;;;;4998731;28;20548;-51
2023/01/18 03:33:44;;;;;;;12.80;8.80;;;;;;;;;;4980993;28;20470;-50
2023/01/18 03:36:12;;;;;;;15.30;8.30;;;;;;;;;;4999537;28;20448;-52
2023/01/18 03:38:39;;;;;;;11.53;8.20;;;;;;;;;;5009275;28;20456;-51
2023/01/18 03:41:05;;;;;;;13.40;8.40;;;;;;;;;;4994077;28;20517;-51
2023/01/18 03:43:35;;;;;;;11.40;7.47;;;;;;;;;;5011363;28;20451;-52
2023/01/18 03:46:01;;;;;;;19.00;7.80;;;;;;;;;;5006065;28;20456;-55
2023/01/18 03:48:27;;;;;;;10.20;7.20;;;;;;;;;;5007423;28;20435;-51
2023/01/18 03:50:55;;;;;;;13.80;7.53;;;;;;;;;;4982803;28;20450;-52
2023/01/18 03:53:33;;;;;;;11.40;7.50;;;;;;;;;;5008803;28;20476;-50
2023/01/18 03:56:04;;;;;;;10.73;7.40;;;;;;;;;;5003229;28;20445;-50
2023/01/18 03:58:32;;;;;;;11.90;7.10;;;;;;;;;;5003876;28;20427;-53
2023/01/18 04:00:58;;;;;;;15.20;8.57;;;;;;;;;;4976612;28;20458;-51
2023/01/18 04:03:23;;;;;;;10.90;7.93;;;;;;;;;;4997935;28;21007;-50
2023/01/18 04:05:49;;;;;;;12.27;8.90;;;;;;;;;;4966415;28;20557;-50
2023/01/18 04:08:15;;;;;;;10.67;7.50;;;;;;;;;;5001322;28;20183;-51
2023/01/18 04:10:41;;;;;;;14.90;8.20;;;;;;;;;;5004261;28;20530;-52
2023/01/18 04:13:07;;;;;;;11.40;8.97;;;;;;;;;;5008601;28;20439;-53
2023/01/18 04:15:33;;;;;;;10.80;8.20;;;;;;;;;;4996392;28;20451;-53
2023/01/18 04:17:59;;;;;;;11.00;6.60;;;;;;;;;;4995424;28;20431;-50
2023/01/18 04:20:25;;;;;;;10.73;7.43;;;;;;;;;;4980522;28;20960;-50
2023/01/18 04:22:51;;;;;;;16.80;7.20;;;;;;;;;;5008579;28;21105;-54
2023/01/18 04:25:18;;;;;;;12.90;7.53;;;;;;;;;;4984107;28;20901;-54
2023/01/18 04:27:44;;;;;;;12.97;9.50;;;;;;;;;;5004853;28;20895;-49
2023/01/18 04:30:10;;;;;;;13.60;9.00;;;;;;;;;;4978714;28;20474;-52
2023/01/18 04:32:36;;;;;;;18.40;9.30;;;;;;;;;;5001662;28;20463;-50
2023/01/18 04:35:02;;;;;;;18.63;10.43;;;;;;;;;;4960046;28;20448;-51
2023/01/18 04:37:32;;;;;;;19.40;10.07;;;;;;;;;;5004794;28;20442;-52
2023/01/18 04:39:59;;;;;;;14.20;9.20;;;;;;;;;;4991733;28;20443;-52
2023/01/18 04:42:25;;;;;;;17.57;10.40;;;;;;;;;;5008121;28;20585;-52
2023/01/18 04:44:51;;;;;;;13.37;8.90;;;;;;;;;;4981011;28;20479;-50
2023/01/18 04:47:17;;;;;;;17.20;9.27;;;;;;;;;;5003617;28;20618;-52
2023/01/18 04:49:43;;;;;;;19.93;10.40;;;;;;;;;;4970586;28;20994;-50
2023/01/18 04:52:09;;;;;;;14.60;10.10;;;;;;;;;;5006444;28;20478;-52
2023/01/18 04:54:35;;;;;;;14.30;10.20;;;;;;;;;;4986806;28;20525;-52
2023/01/18 04:57:01;;;;;;;13.80;8.30;;;;;;;;;;5005819;28;21275;-52
2023/01/18 04:59:27;;;;;;;14.97;9.77;;;;;;;;;;4998611;28;20487;-51
2023/01/18 05:01:53;;;;;;;19.30;11.30;;;;;;;;;;5004767;28;20185;-53
2023/01/18 05:04:19;;;;;;;8.90;7.13;;;;;;;;;;5000251;28;20564;-53
2023/01/18 05:06:47;;;;;;;11.30;8.37;;;;;;;;;;5005031;28;20782;-54
2023/01/18 05:09:24;;;;;;;12.70;9.10;;;;;;;;;;4972103;28;21279;-54
2023/01/18 05:11:51;;;;;;;12.03;7.23;;;;;;;;;;4991867;28;20540;-53
2023/01/18 05:14:17;;;;;;;10.53;7.80;;;;;;;;;;5005739;28;20482;-52
2023/01/18 05:16:43;;;;;;;9.67;8.03;;;;;;;;;;4978662;28;20443;-54
2023/01/18 05:19:09;;;;;;;10.87;7.17;;;;;;;;;;5004551;28;20431;-52
2023/01/18 05:21:35;;;;;;;15.70;8.23;;;;;;;;;;4979459;28;20184;-54
2023/01/18 05:24:01;;;;;;;9.63;5.90;;;;;;;;;;5006132;28;20798;-54
2023/01/18 05:26:27;;;;;;;12.07;5.70;;;;;;;;;;4974386;28;20792;-53
2023/01/18 05:28:56;;;;;;;8.80;5.97;;;;;;;;;;5000667;28;20427;-54
2023/01/18 05:31:22;;;;;;;9.53;6.27;;;;;;;;;;4971703;28;20459;-53
2023/01/18 05:33:48;;;;;;;8.47;7.00;;;;;;;;;;4996451;28;20435;-52
2023/01/18 05:36:14;;;;;;;8.00;5.43;;;;;;;;;;4995436;28;20251;-54
2023/01/18 05:38:40;;;;;;;11.03;6.10;;;;;;;;;;5006904;28;21347;-52
2023/01/18 05:41:06;;;;;;;6.80;5.57;;;;;;;;;;4965272;28;20498;-53
2023/01/18 05:43:32;;;;;;;7.03;4.60;;;;;;;;;;5010391;28;20447;-53
2023/01/18 05:45:58;;;;;;;6.40;4.73;;;;;;;;;;4996903;28;21373;-53
2023/01/18 05:48:24;;;;;;;10.23;5.63;;;;;;;;;;5000788;28;20438;-53
2023/01/18 05:50:50;;;;;;;6.17;5.57;;;;;;;;;;4974611;28;20975;-52
2023/01/18 05:53:17;;;;;;;6.60;5.50;;;;;;;;;;5009341;28;20427;-53
2023/01/18 05:55:43;;;;;;;9.60;5.87;;;;;;;;;;4995822;28;21391;-53
2023/01/18 05:58:09;;;;;;;7.67;5.13;;;;;;;;;;5010148;28;20962;-52
2023/01/18 06:00:35;;;;;;;4.00;3.40;;;;;;;;;;4986962;28;20662;-52
2023/01/18 06:03:01;;;;;;;7.37;5.80;;;;;;;;;;5010032;28;20521;-53
2023/01/18 06:05:27;;;;;;;4.83;3.70;;;;;;;;;;4986117;28;21888;-51
2023/01/18 06:07:53;;;;;;;6.60;5.70;;;;;;;;;;5003228;28;20422;-52
2023/01/18 06:10:19;;;;;;;10.30;7.13;;;;;;;;;;5009706;28;20443;-52
2023/01/18 06:12:45;;;;;;;5.30;4.27;;;;;;;;;;5006685;28;20450;-52
2023/01/18 06:15:14;;;;;;;8.03;5.77;;;;;;;;;;4979102;28;20443;-53
2023/01/18 06:17:40;;;;;;;6.50;5.37;;;;;;;;;;4985525;28;20444;-51
2023/01/18 06:20:06;;;;;;;8.40;5.90;;;;;;;;;;5017127;28;20447;-52
2023/01/18 06:22:32;;;;;;;7.10;5.27;;;;;;;;;;4989183;28;20474;-53
2023/01/18 06:24:59;;;;;;;9.30;5.87;;;;;;;;;;5011071;28;21301;-53
2023/01/18 06:27:24;;;;;;;7.83;5.90;;;;;;;;;;4987562;28;20435;-52
2023/01/18 06:29:50;;;;;;;5.30;4.70;;;;;;;;;;5014443;28;21063;-52
2023/01/18 06:32:16;;;;;;;6.70;5.10;;;;;;;;;;4985494;28;20443;-53
2023/01/18 06:34:42;;;;;;;8.43;5.70;;;;;;;;;;5012910;28;20450;-52
2023/01/18 06:37:08;;;;;;;7.67;4.90;;;;;;;;;;4996128;28;20512;-52
2023/01/18 06:39:34;;;;;;;5.83;5.07;;;;;;;;;;5005222;28;21408;-52
2023/01/18 06:42:00;;;;;;;6.93;5.30;;;;;;;;;;4985444;28;23053;-52
2023/01/18 06:44:26;;;;;;;5.73;4.50;;;;;;;;;;5012993;28;20490;-52
2023/01/18 06:46:53;;;;;;;11.30;5.90;;;;;;;;;;4971193;28;20450;-53
2023/01/18 06:49:19;;;;;;;11.80;7.07;;;;;;;;;;5015812;28;20435;-52
2023/01/18 06:51:45;;;;;;;11.30;9.00;;;;;;;;;;4985701;28;20452;-52
2023/01/18 06:54:11;;;;;;;11.30;8.63;;;;;;;;;;5012084;28;20435;-51
2023/01/18 06:56:37;;;;;;;10.80;8.00;;;;;;;;;;4991971;28;20550;-52
2023/01/18 06:59:03;;;;;;;11.10;9.53;;;;;;;;;;5010277;28;20446;-52
2023/01/18 07:01:29;;;;;;;15.50;9.30;;;;;;;;;;4982990;28;20454;-53
2023/01/18 07:03:55;;;;;;;11.07;8.30;;;;;;;;;;4988145;28;20463;-52
2023/01/18 07:06:21;;;;;;;10.53;7.70;;;;;;;;;;5000124;28;22068;-53
2023/01/18 07:08:50;;;;;;;13.17;9.07;;;;;;;;;;4998150;28;20435;-53
2023/01/18 07:11:17;;;;;;;11.50;8.50;;;;;;;;;;4975675;28;20439;-52
2023/01/18 07:13:43;;;;;;;13.33;8.20;;;;;;;;;;5006169;28;20932;-51
2023/01/18 07:16:12;;;;;;;16.63;8.70;;;;;;;;;;4998313;28;20708;-54
2023/01/18 07:18:42;;;;;;;10.00;6.80;;;;;;;;;;5002637;28;20448;-52
2023/01/18 07:21:09;;;;;;;8.77;6.80;;;;;;;;;;4966625;28;20447;-52
2023/01/18 07:23:38;;;;;;;9.07;6.20;;;;;;;;;;5008860;28;21116;-52
2023/01/18 07:26:04;;;;;;;11.03;6.97;;;;;;;;;;4981805;28;20531;-51
2023/01/18 07:28:31;;;;;;;9.07;6.80;;;;;;;;;;5003565;28;20652;-53
2023/01/18 07:30:56;;;;;;;8.00;6.70;;;;;;;;;;4982868;28;20907;-53
2023/01/18 07:33:22;;;;;;;9.73;8.73;;;;;;;;;;5010510;28;20527;-53
2023/01/18 07:35:50;;;;;;;10.93;7.27;;;;;;;;;;4991601;28;20443;-53
2023/01/18 07:38:17;;;;;;;11.70;7.93;;;;;;;;;;5005771;28;20439;-52
2023/01/18 07:40:43;;;;;;;10.03;7.10;;;;;;;;;;4989060;28;20447;-55
2023/01/18 07:43:09;;;;;;;7.50;6.00;;;;;;;;;;5007905;28;21079;-54
2023/01/18 07:45:36;;;;;;;8.73;7.17;;;;;;;;;;5004740;28;20790;-54
2023/01/18 07:48:02;;;;;;;7.50;5.90;;;;;;;;;;5005130;28;20427;-53
2023/01/18 07:50:28;;;;;;;9.80;7.30;;;;;;;;;;4969174;28;20488;-53
2023/01/18 07:52:55;;;;;;;11.03;6.57;;;;;;;;;;5000195;28;20423;-52
2023/01/18 07:55:21;;;;;;;7.83;5.97;;;;;;;;;;4999879;28;20450;-53
2023/01/18 07:57:47;;;;;;;14.67;7.60;;;;;;;;;;5008797;28;20722;-54
2023/01/18 08:00:16;;;;;;;11.37;7.63;;;;;;;;;;4990794;28;20714;-55
2023/01/18 08:02:41;;;;;;;9.70;8.70;;;;;;;;;;5008717;28;20960;-55
2023/01/18 08:05:09;;;;;;;8.60;7.10;;;;;;;;;;4996585;28;20483;-53
2023/01/18 08:07:35;;;;;;;8.73;6.00;;;;;;;;;;5005989;28;20529;-53
2023/01/18 08:10:01;;;;;;;11.27;7.13;;;;;;;;;;5011101;28;20497;-54
2023/01/18 08:12:27;;;;;;;11.23;6.67;;;;;;;;;;5010605;28;21591;-53
2023/01/18 08:14:54;;;;;;;6.83;5.50;;;;;;;;;;4996898;28;20526;-53
2023/01/18 08:17:20;;;;;;;7.20;5.50;;;;;;;;;;4996272;28;20447;-52
2023/01/18 08:19:46;;;;;;;9.00;6.50;;;;;;;;;;5006235;28;20445;-52
2023/01/18 08:22:12;;;;;;;8.67;6.70;;;;;;;;;;4993012;28;21186;-52
2023/01/18 08:25:13;;;;;;;11.77;8.10;;;;;;;;;;5015929;28;20471;-55
2023/01/18 08:27:45;;;;;;;10.17;6.37;;;;;;;;;;5000390;28;21068;-52
2023/01/18 08:30:12;;;;;;;5.40;4.90;;;;;;;;;;5002879;28;20455;-54
2023/01/18 08:32:38;;;;;;;6.50;5.27;;;;;;;;;;4983699;28;20489;-52
2023/01/18 08:35:04;;;;;;;7.00;4.40;;;;;;;;;;5011635;28;21106;-50
2023/01/18 08:37:30;;;;;;;6.43;5.40;;;;;;;;;;4983080;28;20447;-52
2023/01/18 08:39:56;;;;;;;14.00;6.00;;;;;;;;;;5013545;28;20450;-52
2023/01/18 08:42:22;;;;;;;6.80;5.50;;;;;;;;;;5003035;28;20482;-52
2023/01/18 08:44:48;;;;;;;7.73;5.60;;;;;;;;;;5011156;28;20471;-51
2023/01/18 08:47:14;;;;;;;7.20;5.70;;;;;;;;;;4989017;28;20870;-51
2023/01/18 08:49:40;;;;;;;10.03;7.13;;;;;;;;;;5025949;28;20526;-51
2023/01/18 08:52:09;;;;;;;8.50;5.33;;;;;;;;;;5007124;28;20933;-52
2023/01/18 08:54:35;;;;;;;7.90;5.87;;;;;;;;;;5009009;28;20592;-52
2023/01/18 08:57:09;;;;;;;6.23;5.40;;;;;;;;;;4994354;28;20443;-52
2023/01/18 08:59:36;;;;;;;7.23;6.50;;;;;;;;;;4981164;28;20704;-52
2023/01/18 09:02:02;;;;;;;8.97;6.63;;;;;;;;;;5009677;28;20465;-51
2023/01/18 09:04:31;;;;;;;7.37;5.70;;;;;;;;;;4990183;28;20483;-52
2023/01/18 09:06:57;;;;;;;7.80;5.30;;;;;;;;;;5007975;28;20486;-52
2023/01/18 09:09:23;;;;;;;5.17;4.30;;;;;;;;;;4991122;28;20489;-51
2023/01/18 09:11:52;;;;;;;8.57;4.90;;;;;;;;;;5008229;28;20428;-54
2023/01/18 09:14:18;;;;;;;5.80;4.37;;;;;;;;;;5005117;28;20470;-52
2023/01/18 09:16:44;;;;;;;7.47;4.90;;;;;;;;;;5002847;28;20452;-53
2023/01/18 09:19:10;;;;;;;7.07;5.17;;;;;;;;;;4988622;28;20451;-55
2023/01/18 09:21:36;;;;;;;11.67;7.20;;;;;;;;;;5011839;28;20439;-54
2023/01/18 09:24:02;;;;;;;6.30;4.80;;;;;;;;;;5013210;28;21190;-53
2023/01/18 09:26:29;;;;;;;6.97;5.67;;;;;;;;;;5016139;28;20435;-52
2023/01/18 09:28:55;;;;;;;4.93;3.73;;;;;;;;;;4989338;28;20466;-53
2023/01/18 09:31:22;;;;;;;8.80;5.30;;;;;;;;;;5018038;28;20430;-53
2023/01/18 09:33:48;;;;;;;7.53;5.00;;;;;;;;;;5004467;28;20551;-53
2023/01/18 09:36:14;;;;;;;6.30;5.40;;;;;;;;;;4998439;28;20446;-53
2023/01/18 09:38:40;;;;;;;4.77;4.17;;;;;;;;;;5005419;28;20650;-53
2023/01/18 09:41:14;;;;;;;9.93;6.20;;;;;;;;;;4999140;28;20443;-53
2023/01/18 09:43:43;;;;;;;7.13;5.53;;;;;;;;;;5012506;28;20511;-52
2023/01/18 09:46:17;;;;;;;5.60;4.50;;;;;;;;;;5012297;28;20451;-54
2023/01/18 09:48:43;;;;;;;8.23;5.43;;;;;;;;;;5004196;28;20659;-54
2023/01/18 09:51:12;;;;;;;7.30;5.20;;;;;;;;;;5000341;28;20536;-52
2023/01/18 09:53:47;;;;;;;7.37;5.30;;;;;;;;;;5013633;28;20428;-53
2023/01/18 09:56:15;;;;;;;11.10;6.57;;;;;;;;;;5009087;28;20480;-53
2023/01/18 09:59:09;;;;;;;8.30;5.17;;;;;;;;;;5003593;28;20460;-52
2023/01/18 10:01:39;;;;;;;8.80;5.60;;;;;;;;;;5013684;28;20431;-54
2023/01/18 10:04:07;;;;;;;9.80;5.80;;;;;;;;;;4997025;28;21377;-53
2023/01/18 10:06:36;;;;;;;8.67;6.50;;;;;;;;;;5011140;28;20516;-52
2023/01/18 10:09:03;;;;;;;10.27;6.97;;;;;;;;;;5022120;28;20681;-54
2023/01/18 10:11:31;;;;;;;8.93;6.40;;;;;;;;;;5010875;28;20465;-53
2023/01/18 10:14:04;;;;;;;10.10;6.40;;;;;;;;;;4993656;28;21199;-53
2023/01/18 10:16:34;;;;;;;6.50;5.30;;;;;;;;;;5006244;28;20945;-52
2023/01/18 10:19:03;;;;;;;9.10;6.50;;;;;;;;;;4992399;28;20438;-54
2023/01/18 10:21:34;;;;;;;9.67;6.10;;;;;;;;;;5007602;28;20835;-54
2023/01/18 10:24:19;;;;;;;8.30;6.30;;;;;;;;;;4993458;28;20771;-53
2023/01/18 10:26:45;;;;;;;6.97;5.60;;;;;;;;;;5015958;28;20975;-55
2023/01/18 10:29:13;;;;;;;9.40;5.97;;;;;;;;;;4986038;28;20455;-52
2023/01/18 10:31:49;;;;;;;9.33;6.50;;;;;;;;;;5015358;28;20435;-53
2023/01/18 10:34:19;;;;;;;7.00;5.37;;;;;;;;;;4972048;28;20566;-52
2023/01/18 10:36:49;;;;;;;5.63;4.83;;;;;;;;;;4999476;28;20986;-53
2023/01/18 10:39:21;;;;;;;7.47;5.57;;;;;;;;;;5010753;28;20432;-53
2023/01/18 10:41:47;;;;;;;6.97;4.93;;;;;;;;;;4994724;28;20439;-54
2023/01/18 10:44:16;;;;;;;6.80;6.10;;;;;;;;;;5014265;28;21000;-54
2023/01/18 10:46:43;;;;;;;8.47;6.90;;;;;;;;;;5002151;28;20431;-53
2023/01/18 10:49:09;;;;;;;10.50;6.83;;;;;;;;;;5012220;28;20487;-53
2023/01/18 10:51:36;;;;;;;21.13;8.00;;;;;;;;;;5010898;28;20435;-53
2023/01/18 10:54:17;;;;;;;9.00;5.93;;;;;;;;;;5013357;28;20500;-52
2023/01/18 10:56:43;;;;;;;8.80;6.03;;;;;;;;;;4985537;28;20451;-55
2023/01/18 10:59:23;;;;;;;6.47;4.93;;;;;;;;;;5012996;28;20455;-57
2023/01/18 11:01:54;;;;;;;6.57;5.03;;;;;;;;;;4994296;28;20443;-54
2023/01/18 11:04:21;;;;;;;8.87;6.20;;;;;;;;;;4988056;28;20834;-55
2023/01/18 11:06:48;;;;;;;12.93;5.90;;;;;;;;;;5012829;28;20435;-54
2023/01/18 11:09:36;;;;;;;8.57;5.33;;;;;;;;;;4972036;28;20467;-54
2023/01/18 11:12:33;;;;;;;11.77;6.63;;;;;;;;;;5005026;28;20473;-54
2023/01/18 11:15:14;;;;;;;9.23;6.40;;;;;;;;;;4986852;28;20807;-53
2023/01/18 11:17:40;;;;;;;7.10;5.00;;;;;;;;;;5010667;28;20440;-56
2023/01/18 11:20:07;;;;;;;6.40;4.87;;;;;;;;;;4989645;28;20450;-54
2023/01/18 11:22:33;;;;;;;7.37;5.13;;;;;;;;;;5013406;28;20971;-54
2023/01/18 11:24:59;;;;;;;8.93;5.83;;;;;;;;;;5006382;28;20483;-54
2023/01/18 11:27:25;;;;;;;9.30;5.23;;;;;;;;;;5012830;28;20484;-55
2023/01/18 11:29:51;;;;;;;6.00;4.40;;;;;;;;;;4986276;28;20447;-56
2023/01/18 11:32:22;;;;;;;11.63;5.40;;;;;;;;;;5006729;28;20446;-54
2023/01/18 11:34:52;;;;;;;9.17;5.33;;;;;;;;;;5006411;28;20469;-55
2023/01/18 11:37:37;;;;;;;6.77;4.83;;;;;;;;;;5011484;28;20947;-54
2023/01/18 11:40:19;;;;;;;4.80;3.83;;;;;;;;;;5004479;28;20455;-54
2023/01/18 11:42:45;;;;;;;6.30;4.67;;;;;;;;;;5012474;28;20470;-54
2023/01/18 11:45:21;;;;;;;6.30;4.17;;;;;;;;;;4993540;28;20839;-54
2023/01/18 11:47:53;;;;;;;7.93;5.83;;;;;;;;;;5016941;28;20827;-53
2023/01/18 11:50:37;;;;;;;14.60;4.80;;;;;;;;;;4985281;28;21846;-53
2023/01/18 11:53:09;;;;;;;7.77;4.40;;;;;;;;;;5002353;28;20431;-53
2023/01/18 11:55:36;;;;;;;5.03;3.73;;;;;;;;;;5020098;28;20442;-54
2023/01/18 11:58:05;;;;;;;6.40;4.20;;;;;;;;;;5009614;28;21009;-52
2023/01/18 12:00:33;;;;;;;9.20;4.90;;;;;;;;;;4988326;28;20788;-55
2023/01/18 12:03:01;;;;;;;6.90;4.40;;;;;;;;;;5012592;28;20436;-53
2023/01/18 12:05:33;;;;;;;6.37;4.07;;;;;;;;;;5010623;28;20482;-55
2023/01/18 12:08:15;;;;;;;4.87;3.83;;;;;;;;;;5005292;28;20447;-56
2023/01/18 12:11:00;;;;;;;20.10;5.00;;;;;;;;;;4969820;28;20485;-53
2023/01/18 12:13:42;;;;;;;4.37;3.97;;;;;;;;;;4965336;28;20959;-55
2023/01/18 12:16:19;;;;;;;9.77;5.73;;;;;;;;;;4979051;28;20451;-54
2023/01/18 12:19:12;;;;;;;7.80;4.93;;;;;;;;;;5011414;28;20435;-53
2023/01/18 12:21:59;;;;;;;4.60;3.30;;;;;;;;;;4967776;28;20439;-53
2023/01/18 12:24:27;;;;;;;6.93;5.27;;;;;;;;;;5011178;28;20552;-55
2023/01/18 12:26:59;;;;;;;6.97;3.30;;;;;;;;;;4981866;28;20435;-53
2023/01/18 12:29:28;;;;;;;4.90;3.07;;;;;;;;;;5014404;28;20466;-53
2023/01/18 12:32:06;;;;;;;5.07;4.43;;;;;;;;;;4984718;28;20451;-60
2023/01/18 12:34:35;;;;;;;6.00;4.70;;;;;;;;;;5006874;28;20442;-55
2023/01/18 12:37:20;;;;;;;6.87;4.57;;;;;;;;;;4999439;28;20505;-54
2023/01/18 12:39:50;;;;;;;7.90;4.40;;;;;;;;;;4995090;28;20454;-56
2023/01/18 12:42:18;;;;;;;5.07;3.70;;;;;;;;;;4982527;28;21049;-54
2023/01/18 12:45:03;;;;;;;5.73;3.73;;;;;;;;;;5011263;28;20471;-54
2023/01/18 12:47:33;;;;;;;6.57;4.37;;;;;;;;;;5008050;28;20575;-54
2023/01/18 12:50:00;;;;;;;6.93;4.13;;;;;;;;;;4997691;28;22696;-54
2023/01/18 12:52:26;;;;;;;6.93;5.00;;;;;;;;;;4999597;28;22200;-54
2023/01/18 12:55:03;;;;;;;5.40;3.90;;;;;;;;;;5008730;28;21144;-53
2023/01/18 12:57:29;;;;;;;4.10;3.70;;;;;;;;;;5012503;28;21042;-55
2023/01/18 12:59:58;;;;;;;6.37;4.17;;;;;;;;;;5003852;28;20443;-53
2023/01/18 13:02:24;;;;;;;6.57;4.00;;;;;;;;;;4999781;28;20457;-52
2023/01/18 13:04:54;;;;;;;7.00;4.77;;;;;;;;;;5003364;28;20553;-52
2023/01/18 13:07:21;;;;;;;7.67;3.20;;;;;;;;;;4999270;28;20697;-52
2023/01/18 13:09:49;;;;;;;6.23;3.80;;;;;;;;;;5010081;28;20820;-51
2023/01/18 13:12:15;;;;;;;12.00;4.17;;;;;;;;;;5003304;28;20497;-53
2023/01/18 13:14:52;;;;;;;8.93;4.53;;;;;;;;;;5012030;28;20455;-52
2023/01/18 13:17:22;;;;;;;3.90;3.10;;;;;;;;;;4985320;28;20791;-53
2023/01/18 13:19:57;;;;;;;8.40;3.60;;;;;;;;;;5018593;28;20858;-52
2023/01/18 13:22:33;;;;;;;5.23;3.90;;;;;;;;;;4985964;28;20456;-52
2023/01/18 13:25:16;;;;;;;7.80;3.50;;;;;;;;;;5017380;28;20470;-53
2023/01/18 13:28:05;;;;;;;4.47;2.73;;;;;;;;;;5009705;28;20713;-53
2023/01/18 13:30:32;;;;;;;9.07;3.73;;;;;;;;;;4993729;28;20876;-53
2023/01/18 13:32:59;;;;;;;15.23;5.10;;;;;;;;;;4987908;28;20447;-53
2023/01/18 13:35:32;;;;;;;7.07;3.50;;;;;;;;;;4991761;28;20675;-53
2023/01/18 13:38:20;;;;;;;4.60;3.07;;;;;;;;;;4994475;28;20504;-52
2023/01/18 13:40:57;;;;;;;4.73;4.30;;;;;;;;;;4989979;28;20467;-53
2023/01/18 13:43:35;;;;;;;5.10;2.80;;;;;;;;;;5014637;28;20708;-52
2023/01/18 13:46:08;;;;;;;4.30;2.87;;;;;;;;;;5013952;28;21086;-54
2023/01/18 13:48:45;;;;;;;6.30;4.90;;;;;;;;;;5004983;28;20452;-52
2023/01/18 13:51:29;;;;;;;5.03;3.57;;;;;;;;;;5006890;28;20431;-53
2023/01/18 13:53:55;;;;;;;6.47;3.30;;;;;;;;;;5017179;28;20447;-53
2023/01/18 13:56:22;;;;;;;6.40;3.80;;;;;;;;;;4982533;28;20522;-55
2023/01/18 13:58:58;;;;;;;7.23;3.30;;;;;;;;;;5013459;28;20647;-53
2023/01/18 14:01:25;;;;;;;4.70;3.03;;;;;;;;;;4987041;28;20445;-53
2023/01/18 14:03:51;;;;;;;5.03;3.67;;;;;;;;;;5009836;28;20458;-52
2023/01/18 14:06:34;;;;;;;10.43;4.37;;;;;;;;;;5011134;28;20448;-54
2023/01/18 14:09:07;;;;;;;4.00;2.90;;;;;;;;;;5014458;28;20435;-53
2023/01/18 14:11:36;;;;;;;8.93;3.57;;;;;;;;;;4986126;28;20513;-54
2023/01/18 14:14:03;;;;;;;9.67;5.80;;;;;;;;;;5008935;28;20834;-55
2023/01/18 14:16:31;;;;;;;5.83;3.30;;;;;;;;;;4968854;28;20746;-53
2023/01/18 14:19:03;;;;;;;5.13;3.40;;;;;;;;;;5007635;28;20485;-53
2023/01/18 14:21:43;;;;;;;4.03;3.63;;;;;;;;;;4989865;28;21057;-54
2023/01/18 14:24:09;;;;;;;4.93;3.30;;;;;;;;;;5010050;28;20521;-54
2023/01/18 14:26:35;;;;;;;6.03;3.97;;;;;;;;;;4996413;28;20716;-53
2023/01/18 14:29:03;;;;;;;5.73;3.63;;;;;;;;;;5001535;28;20784;-53
2023/01/18 14:31:30;;;;;;;3.90;2.87;;;;;;;;;;4987204;28;20446;-53
2023/01/18 14:33:56;;;;;;;5.47;3.47;;;;;;;;;;5011634;28;20443;-54
2023/01/18 14:36:26;;;;;;;4.33;3.53;;;;;;;;;;4980542;28;20438;-54
2023/01/18 14:39:11;;;;;;;4.70;3.20;;;;;;;;;;5008437;28;20439;-55
2023/01/18 14:41:38;;;;;;;4.10;3.33;;;;;;;;;;4996174;28;20955;-54
2023/01/18 14:44:04;;;;;;;8.40;3.03;;;;;;;;;;4995514;28;21026;-54
2023/01/18 14:46:31;;;;;;;7.72;3.40;;;;;;;;;;4986439;28;20528;-55
2023/01/18 14:48:59;;;;;;;4.03;3.30;;;;;;;;;;5007481;28;20173;-55
2023/01/18 14:51:29;;;;;;;8.00;4.40;;;;;;;;;;4989463;28;20456;-54
2023/01/18 14:54:00;;;;;;;5.47;2.83;;;;;;;;;;5008820;28;20735;-54
2023/01/18 14:56:27;;;;;;;4.23;2.60;;;;;;;;;;5010772;28;20427;-54
2023/01/18 14:59:00;;;;;;;4.40;3.03;;;;;;;;;;5016731;28;20423;-54
2023/01/18 15:01:30;;;;;;;3.70;3.10;;;;;;;;;;4981781;28;20888;-54
2023/01/18 15:03:56;;;;;;;5.60;3.63;;;;;;;;;;5012862;28;20438;-54
2023/01/18 15:06:43;;;;;;;4.37;3.53;;;;;;;;;;4990603;28;20597;-55
2023/01/18 15:09:09;;;;;;;3.40;2.90;;;;;;;;;;5014405;28;20450;-54
2023/01/18 15:11:35;;;;;;;5.70;2.70;;;;;;;;;;4997216;28;21072;-54
2023/01/18 15:14:01;;;;;;;9.20;4.33;;;;;;;;;;5013091;28;20630;-54
2023/01/18 15:16:29;;;;;;;5.93;3.40;;;;;;;;;;4985072;28;20552;-54
2023/01/18 15:18:55;;;;;;;5.63;3.67;;;;;;;;;;5013363;28;20447;-56
2023/01/18 15:21:22;;;;;;;5.57;3.33;;;;;;;;;;4976967;28;21291;-53